Time;durP1;ratioP1;P1;durP2;ratioP2;P2;SDS_P1;SDS_P2;PMS_P1;PMS_P2;Temp;Humidity;BMP_temperature;BMP_pressure;BME280_temperature;BME280_humidity;BME280_pressure;Samples;Min_cycle;Max_cycle;Signal;HPM_P1;HPM_P2
2022/12/12 00:01:53;;;;;;;25.65;9.15;;;0.00;99.90;;;;;;4218158;28;20058;-87
2022/12/12 00:03:55;;;;;;;23.70;9.30;;;1.40;99.90;;;;;;4218529;28;20085;-87
2022/12/12 00:05:57;;;;;;;24.60;9.93;;;0.60;99.90;;;;;;4234977;28;20047;-87
2022/12/12 00:08:05;;;;;;;24.05;8.93;;;1.20;99.90;;;;;;4218427;28;20044;-87
2022/12/12 00:10:07;;;;;;;20.60;8.18;;;0.00;99.90;;;;;;4216918;28;20092;-87
2022/12/12 00:12:08;;;;;;;20.42;8.55;;;0.00;99.90;;;;;;4230940;28;20048;-87
2022/12/12 00:14:09;;;;;;;25.88;8.88;;;0.80;99.90;;;;;;4234423;28;20522;-87
2022/12/12 00:16:11;;;;;;;21.25;8.68;;;0.10;99.90;;;;;;4219184;28;20040;-87
2022/12/12 00:18:14;;;;;;;29.23;8.75;;;0.10;99.90;;;;;;4219322;28;20040;-87
2022/12/12 00:20:15;;;;;;;23.98;8.10;;;1.60;99.90;;;;;;4218113;28;20173;-87
2022/12/12 00:22:17;;;;;;;21.92;8.38;;;1.70;99.90;;;;;;4218254;28;20196;-87
2022/12/12 00:24:17;;;;;;;21.75;8.27;;;0.00;99.90;;;;;;4234405;28;20039;-87
2022/12/12 00:26:22;;;;;;;23.73;9.50;;;1.50;99.90;;;;;;4217860;28;20517;-87
2022/12/12 00:28:24;;;;;;;23.98;9.32;;;0.00;99.90;;;;;;4218667;28;20048;-87
2022/12/12 00:30:25;;;;;;;21.45;8.68;;;1.50;99.90;;;;;;4223862;28;20416;-87
2022/12/12 00:32:27;;;;;;;26.27;9.75;;;0.00;99.90;;;;;;4218123;28;20040;-87
2022/12/12 00:34:29;;;;;;;24.60;8.20;;;0.00;99.90;;;;;;4217701;28;20039;-87
2022/12/12 00:36:31;;;;;;;21.08;8.55;;;0.10;99.90;;;;;;4200943;28;20056;-87
2022/12/12 00:38:33;;;;;;;20.80;8.10;;;0.00;99.90;;;;;;4201283;28;20050;-88
2022/12/12 00:40:35;;;;;;;25.20;7.72;;;1.50;99.90;;;;;;4217228;28;20056;-86
2022/12/12 00:42:37;;;;;;;20.05;7.97;;;-0.10;99.90;;;;;;4217976;28;20048;-87
2022/12/12 00:44:43;;;;;;;22.75;7.80;;;1.30;99.90;;;;;;4199919;28;20047;-87
2022/12/12 00:46:45;;;;;;;20.05;8.32;;;0.60;99.90;;;;;;4229233;28;20052;-87
2022/12/12 00:48:48;;;;;;;24.52;9.18;;;0.90;99.90;;;;;;4217909;28;20078;-86
2022/12/12 00:50:51;;;;;;;26.38;9.20;;;0.00;99.90;;;;;;4235329;28;20487;-86
2022/12/12 00:53:01;;;;;;;21.42;9.30;;;-0.50;99.90;;;;;;4218617;28;20135;-87
2022/12/12 00:55:03;;;;;;;26.35;8.10;;;0.00;99.90;;;;;;4235730;28;20078;-87
2022/12/12 00:57:04;;;;;;;20.30;8.65;;;0.10;99.90;;;;;;4237651;28;20035;-87
2022/12/12 00:59:08;;;;;;;23.05;9.57;;;0.70;99.90;;;;;;4240021;28;20047;-87
2022/12/12 01:01:16;;;;;;;24.00;9.25;;;0.10;99.90;;;;;;4240427;28;20067;-87
2022/12/12 01:03:19;;;;;;;22.27;9.20;;;1.40;99.90;;;;;;4240247;28;20052;-87
2022/12/12 01:05:21;;;;;;;20.77;8.88;;;1.50;99.90;;;;;;4222461;28;20496;-87
2022/12/12 01:07:23;;;;;;;28.95;10.45;;;0.10;99.90;;;;;;4237045;28;20054;-86
2022/12/12 01:09:26;;;;;;;22.65;9.13;;;0.10;99.90;;;;;;4239838;28;20040;-86
2022/12/12 01:11:31;;;;;;;21.23;8.50;;;0.20;99.90;;;;;;4223861;28;20063;-87
2022/12/12 01:13:33;;;;;;;22.70;9.48;;;-0.40;99.90;;;;;;4240008;28;20059;-86
2022/12/12 01:15:35;;;;;;;26.98;9.15;;;1.60;99.90;;;;;;4226440;28;20515;-87
2022/12/12 01:17:37;;;;;;;18.92;7.38;;;1.50;99.90;;;;;;4221146;28;20512;-87
2022/12/12 01:19:38;;;;;;;18.48;7.65;;;0.10;99.90;;;;;;4220095;28;20048;-87
2022/12/12 01:21:41;;;;;;;24.15;8.65;;;0.10;99.90;;;;;;4220657;28;20088;-87
2022/12/12 01:23:44;;;;;;;20.85;7.55;;;0.20;99.90;;;;;;4225307;28;20496;-86
2022/12/12 01:25:46;;;;;;;20.52;8.10;;;0.10;99.90;;;;;;4220872;28;20044;-87
2022/12/12 01:27:48;;;;;;;22.23;8.85;;;1.30;99.90;;;;;;4220746;28;20109;-87
2022/12/12 01:29:50;;;;;;;21.52;8.02;;;0.10;99.90;;;;;;4221898;28;20381;-87
2022/12/12 01:31:51;;;;;;;21.08;8.18;;;1.30;99.90;;;;;;4222017;28;20044;-87
2022/12/12 01:33:54;;;;;;;22.55;8.10;;;0.10;99.90;;;;;;4203617;28;20044;-87
2022/12/12 01:35:56;;;;;;;22.05;7.85;;;1.30;99.90;;;;;;4222131;28;20044;-87
2022/12/12 01:38:02;;;;;;;22.95;7.80;;;1.40;99.90;;;;;;4221737;28;20048;-87
2022/12/12 01:40:06;;;;;;;19.27;7.93;;;0.10;99.90;;;;;;4225724;28;20446;-87
2022/12/12 01:42:16;;;;;;;22.98;7.78;;;0.30;99.90;;;;;;4218231;28;20048;-87
2022/12/12 01:44:42;;;;;;;19.77;8.18;;;0.10;99.90;;;;;;4247820;28;20086;-87
2022/12/12 01:46:44;;;;;;;20.92;8.13;;;0.10;99.90;;;;;;4236698;28;20043;-86
2022/12/12 01:48:50;;;;;;;20.63;7.70;;;1.20;99.90;;;;;;4252332;28;20031;-86
2022/12/12 01:50:57;;;;;;;20.60;8.60;;;0.10;99.90;;;;;;4251356;28;20074;-86
2022/12/12 01:52:59;;;;;;;19.58;8.30;;;1.80;99.90;;;;;;4239442;28;20073;-87
2022/12/12 01:55:04;;;;;;;22.83;8.80;;;1.80;99.90;;;;;;4236877;28;20137;-87
2022/12/12 01:57:13;;;;;;;20.75;8.45;;;0.10;99.90;;;;;;4238888;28;20054;-87
2022/12/12 01:59:19;;;;;;;20.45;8.60;;;0.10;99.90;;;;;;4226562;28;20081;-87
2022/12/12 02:01:22;;;;;;;19.60;7.25;;;1.30;99.90;;;;;;4204577;28;20049;-86
2022/12/12 02:03:25;;;;;;;20.90;8.50;;;1.50;99.90;;;;;;4220734;28;20040;-87
2022/12/12 02:05:57;;;;;;;21.25;8.15;;;0.00;99.90;;;;;;4220019;28;20482;-87
2022/12/12 02:08:01;;;;;;;27.63;9.32;;;0.10;99.90;;;;;;4202491;28;20052;-87
2022/12/12 02:10:02;;;;;;;22.48;8.38;;;1.50;99.90;;;;;;4220283;28;20097;-86
2022/12/12 02:12:04;;;;;;;24.70;8.48;;;0.10;99.90;;;;;;4218870;28;20044;-86
2022/12/12 02:14:12;;;;;;;21.98;9.35;;;0.00;99.90;;;;;;4203345;28;20044;-87
2022/12/12 02:16:46;;;;;;;24.10;7.97;;;1.70;99.90;;;;;;4219159;28;20080;-87
2022/12/12 02:19:02;;;;;;;21.05;7.82;;;0.00;99.90;;;;;;4202689;28;20512;-86
2022/12/12 02:21:14;;;;;;;23.13;8.43;;;0.00;99.90;;;;;;4202297;28;20417;-87
2022/12/12 02:23:38;;;;;;;21.85;8.27;;;0.00;99.90;;;;;;4220552;28;20051;-87
2022/12/12 02:26:00;;;;;;;24.85;8.35;;;0.90;99.90;;;;;;4202938;28;20052;-87
2022/12/12 02:28:37;;;;;;;20.73;7.35;;;0.30;99.90;;;;;;4220172;28;20052;-88
2022/12/12 02:30:58;;;;;;;18.97;8.20;;;0.10;99.90;;;;;;4219312;28;20146;-87
2022/12/12 02:33:13;;;;;;;19.48;7.65;;;1.20;99.90;;;;;;4231530;28;20063;-87
2022/12/12 02:35:40;;;;;;;21.50;7.85;;;0.00;99.90;;;;;;4219576;28;20427;-87
2022/12/12 02:37:42;;;;;;;18.58;7.53;;;0.00;99.90;;;;;;4220116;28;20129;-86
2022/12/12 02:40:20;;;;;;;19.27;7.43;;;1.00;99.90;;;;;;4217799;28;20500;-86
2022/12/12 02:42:33;;;;;;;20.77;8.18;;;0.00;99.90;;;;;;4185633;28;20128;-86
2022/12/12 02:45:00;;;;;;;18.42;7.43;;;0.10;99.90;;;;;;4206976;28;20567;-86
2022/12/12 02:47:15;;;;;;;20.70;8.00;;;-0.10;99.90;;;;;;4196264;28;20052;-86
2022/12/12 02:49:31;;;;;;;24.77;9.90;;;0.10;99.90;;;;;;4218238;28;20112;-86
2022/12/12 02:51:35;;;;;;;19.65;7.43;;;0.00;99.90;;;;;;4232304;28;20043;-87
2022/12/12 02:53:38;;;;;;;18.05;8.20;;;-0.10;99.90;;;;;;4237025;28;20373;-87
2022/12/12 02:55:39;;;;;;;22.17;8.30;;;0.60;99.90;;;;;;4235887;28;20397;-87
2022/12/12 02:57:41;;;;;;;21.30;8.60;;;0.50;99.90;;;;;;4236811;28;20092;-88
2022/12/12 02:59:48;;;;;;;20.95;8.20;;;0.10;99.90;;;;;;4221157;28;20044;-86
2022/12/12 03:02:13;;;;;;;20.30;8.50;;;-1.10;99.90;;;;;;4243381;28;20115;-86
2022/12/12 03:07:47;;;;;;;19.20;7.70;;;-0.90;99.90;;;;;;4233672;28;20083;-86
2022/12/12 03:09:58;;;;;;;20.85;8.63;;;0.00;99.90;;;;;;4227183;28;20096;-84
2022/12/12 03:12:04;;;;;;;28.13;7.82;;;0.00;99.90;;;;;;4224493;28;20059;-86
2022/12/12 03:14:26;;;;;;;22.15;8.38;;;0.00;99.90;;;;;;4219938;28;20056;-85
2022/12/12 03:16:28;;;;;;;22.40;8.98;;;0.10;99.90;;;;;;4218967;28;20432;-84
2022/12/12 03:18:49;;;;;;;20.45;7.88;;;0.00;99.90;;;;;;4218438;28;20052;-86
2022/12/12 03:21:14;;;;;;;22.75;8.15;;;0.20;99.90;;;;;;4234292;28;20396;-85
2022/12/12 03:23:20;;;;;;;20.00;7.95;;;0.00;99.90;;;;;;4219846;28;20458;-85
2022/12/12 03:25:26;;;;;;;19.30;7.70;;;-0.10;99.90;;;;;;4219841;28;20438;-86
2022/12/12 03:27:28;;;;;;;22.55;8.85;;;0.30;99.90;;;;;;4218912;28;20044;-85
2022/12/12 03:29:39;;;;;;;23.50;8.93;;;-1.40;99.90;;;;;;4219868;28;20431;-86
2022/12/12 03:31:46;;;;;;;21.95;7.57;;;0.00;99.90;;;;;;4219744;28;20044;-86
2022/12/12 03:33:55;;;;;;;19.95;7.28;;;0.00;99.90;;;;;;4218600;28;20047;-86
2022/12/12 03:36:21;;;;;;;23.83;7.60;;;0.10;99.90;;;;;;4218921;28;20077;-86
2022/12/12 03:38:28;;;;;;;20.60;8.25;;;1.60;99.90;;;;;;4201083;28;20107;-85
2022/12/12 03:40:50;;;;;;;21.73;7.63;;;0.10;99.90;;;;;;4201657;28;20056;-86
2022/12/12 03:43:18;;;;;;;19.45;7.93;;;-1.00;99.90;;;;;;4221158;28;20044;-85
2022/12/12 03:45:35;;;;;;;24.50;8.77;;;0.00;99.90;;;;;;4217695;28;20056;-85
2022/12/12 03:47:44;;;;;;;21.38;7.80;;;0.10;99.90;;;;;;4217956;28;20131;-86
2022/12/12 03:50:01;;;;;;;18.63;7.35;;;1.20;99.90;;;;;;4218171;28;20059;-86
2022/12/12 03:52:09;;;;;;;20.02;7.38;;;0.00;99.90;;;;;;4201061;28;20431;-86
2022/12/12 03:54:47;;;;;;;18.98;7.75;;;1.30;99.90;;;;;;4201056;28;20044;-86
2022/12/12 03:56:56;;;;;;;19.70;7.20;;;0.10;99.90;;;;;;4213089;28;20056;-86
2022/12/12 03:59:10;;;;;;;24.45;8.32;;;0.00;99.90;;;;;;4227143;28;20040;-86
2022/12/12 04:01:17;;;;;;;21.13;7.47;;;0.20;99.90;;;;;;4235569;28;20425;-86
2022/12/12 04:03:34;;;;;;;16.42;7.13;;;0.70;99.90;;;;;;4234206;28;20436;-87
2022/12/12 04:06:25;;;;;;;20.00;7.55;;;0.60;99.90;;;;;;4234370;28;20051;-87
2022/12/12 04:08:14;;;;;;;18.95;8.13;;;0.00;99.90;;;;;;4234482;28;20415;-87
2022/12/12 04:12:59;;;;;;;17.80;7.32;;;0.00;99.90;;;;;;4234258;28;20055;-86
2022/12/12 04:15:22;;;;;;;18.98;7.43;;;0.00;99.90;;;;;;4232554;28;20050;-86
2022/12/12 04:17:36;;;;;;;21.83;7.78;;;0.20;99.90;;;;;;4217922;28;20044;-87
2022/12/12 04:24:47;;;;;;;19.30;7.53;;;0.60;99.90;;;;;;4235449;28;20596;-86
2022/12/12 04:27:06;;;;;;;21.95;8.00;;;0.00;99.90;;;;;;4234967;28;20052;-87
2022/12/12 04:29:45;;;;;;;19.50;7.03;;;0.00;99.90;;;;;;4217972;28;20044;-87
2022/12/12 04:32:07;;;;;;;20.92;7.53;;;0.00;99.90;;;;;;4216383;28;20078;-87
2022/12/12 04:34:16;;;;;;;18.50;8.00;;;0.10;99.90;;;;;;4216865;28;20443;-87
2022/12/12 04:36:21;;;;;;;17.88;7.18;;;0.10;99.90;;;;;;4218087;28;20449;-87
2022/12/12 04:38:24;;;;;;;16.23;6.32;;;1.50;99.90;;;;;;4218651;28;20055;-87
2022/12/12 04:40:37;;;;;;;20.15;7.90;;;0.20;99.90;;;;;;4200952;28;20119;-87
2022/12/12 04:42:44;;;;;;;22.98;8.40;;;1.70;99.90;;;;;;4200878;28;20052;-87
2022/12/12 04:44:47;;;;;;;20.15;7.43;;;0.00;99.90;;;;;;4216787;28;20050;-87
2022/12/12 04:46:55;;;;;;;21.75;8.57;;;0.20;99.90;;;;;;4217370;28;20055;-87
2022/12/12 04:49:13;;;;;;;19.58;7.43;;;0.30;99.90;;;;;;4217303;28;20048;-86
2022/12/12 04:51:17;;;;;;;18.87;7.43;;;0.10;99.90;;;;;;4204347;28;20036;-87
2022/12/12 04:53:26;;;;;;;19.67;7.22;;;1.50;99.90;;;;;;4217261;28;20283;-87
2022/12/12 04:55:33;;;;;;;21.75;7.85;;;0.10;99.90;;;;;;4218844;28;20548;-87
2022/12/12 04:57:38;;;;;;;21.90;7.93;;;1.60;99.90;;;;;;4199735;28;20576;-87
2022/12/12 04:59:40;;;;;;;20.88;8.00;;;1.30;99.90;;;;;;4201043;28;20066;-87
2022/12/12 05:01:52;;;;;;;20.85;7.68;;;0.20;99.90;;;;;;4218035;28;20119;-87
2022/12/12 05:04:00;;;;;;;21.58;7.72;;;-0.50;99.90;;;;;;4217530;28;20059;-87
2022/12/12 05:06:07;;;;;;;20.48;7.93;;;0.10;99.90;;;;;;4201008;28;20045;-87
2022/12/12 05:08:11;;;;;;;19.48;7.28;;;0.00;99.90;;;;;;4200223;28;20374;-87
2022/12/12 05:10:15;;;;;;;17.60;6.93;;;1.50;99.90;;;;;;4219572;28;20083;-87
2022/12/12 05:12:16;;;;;;;19.95;7.90;;;0.00;99.90;;;;;;4201348;28;20052;-87
2022/12/12 05:14:19;;;;;;;17.42;7.10;;;-0.10;99.90;;;;;;4218248;28;20105;-87
2022/12/12 05:16:37;;;;;;;21.23;7.07;;;0.00;99.90;;;;;;4217574;28;20036;-87
2022/12/12 05:18:45;;;;;;;21.30;8.18;;;0.30;99.90;;;;;;4199995;28;20036;-86
2022/12/12 05:20:47;;;;;;;26.05;6.97;;;1.40;99.90;;;;;;4217346;28;20048;-87
2022/12/12 05:22:49;;;;;;;19.48;7.70;;;0.00;99.90;;;;;;4217599;28;20055;-87
2022/12/12 05:24:50;;;;;;;19.00;7.28;;;0.40;99.90;;;;;;4217507;28;20055;-86
2022/12/12 05:26:58;;;;;;;15.05;6.97;;;0.10;99.90;;;;;;4201703;28;20135;-87
2022/12/12 05:29:03;;;;;;;23.33;7.85;;;0.10;99.90;;;;;;4220173;28;20404;-87
2022/12/12 05:31:04;;;;;;;19.23;7.75;;;1.20;99.90;;;;;;4232678;28;20498;-86
2022/12/12 05:33:05;;;;;;;23.30;7.53;;;0.00;99.90;;;;;;4236066;28;20051;-86
2022/12/12 05:35:09;;;;;;;23.88;8.90;;;0.50;99.90;;;;;;4237700;28;20080;-87
2022/12/12 05:37:12;;;;;;;17.27;7.03;;;0.00;99.90;;;;;;4236300;28;20103;-87
2022/12/12 05:39:15;;;;;;;19.30;7.78;;;0.00;99.90;;;;;;4219964;28;20048;-86
2022/12/12 05:41:20;;;;;;;22.83;8.68;;;1.20;99.90;;;;;;4238352;28;20099;-86
2022/12/12 05:43:25;;;;;;;17.60;7.20;;;-0.10;99.90;;;;;;4236162;28;20048;-87
2022/12/12 05:45:28;;;;;;;17.45;6.88;;;0.20;99.90;;;;;;4221438;28;20520;-87
2022/12/12 05:47:30;;;;;;;19.58;7.47;;;0.00;99.90;;;;;;4224261;28;20052;-87
2022/12/12 05:49:32;;;;;;;22.25;7.38;;;0.00;99.90;;;;;;4221375;28;20044;-87
2022/12/12 05:51:34;;;;;;;19.75;8.60;;;0.10;99.90;;;;;;4221063;28;20036;-87
2022/12/12 05:53:40;;;;;;;16.20;6.85;;;0.80;99.90;;;;;;4207620;28;20057;-87
2022/12/12 05:55:43;;;;;;;20.02;7.78;;;0.60;99.90;;;;;;4220040;28;20492;-87
2022/12/12 05:57:45;;;;;;;18.45;6.80;;;1.20;99.90;;;;;;4219964;28;20048;-87
2022/12/12 05:59:48;;;;;;;20.10;7.65;;;0.30;99.90;;;;;;4219836;28;20098;-87
2022/12/12 06:01:49;;;;;;;15.88;6.68;;;-0.10;99.90;;;;;;4213340;28;20043;-87
2022/12/12 06:03:51;;;;;;;18.90;6.70;;;-0.10;99.90;;;;;;4236966;28;20043;-87
2022/12/12 06:05:59;;;;;;;20.25;8.13;;;-0.10;99.90;;;;;;4238314;28;20404;-87
2022/12/12 06:08:00;;;;;;;17.17;6.75;;;0.00;99.90;;;;;;4236313;28;20036;-87
2022/12/12 06:10:02;;;;;;;19.40;7.45;;;-0.10;99.90;;;;;;4237226;28;20043;-87
2022/12/12 06:12:03;;;;;;;22.15;7.97;;;-0.10;99.90;;;;;;4220192;28;20056;-87
2022/12/12 06:14:06;;;;;;;20.13;6.88;;;-0.10;99.90;;;;;;4238109;28;20054;-87
2022/12/12 06:16:09;;;;;;;22.10;7.07;;;-0.20;99.90;;;;;;4220122;28;20083;-86
2022/12/12 06:18:11;;;;;;;20.40;8.13;;;-0.20;99.90;;;;;;4227592;28;20039;-87
2022/12/12 06:20:12;;;;;;;17.42;7.43;;;0.00;99.90;;;;;;4203582;28;20146;-87
2022/12/12 06:22:14;;;;;;;21.60;8.00;;;1.50;99.90;;;;;;4203418;28;20056;-87
2022/12/12 06:24:17;;;;;;;18.33;7.93;;;-0.20;99.90;;;;;;4221338;28;20050;-87
2022/12/12 06:26:20;;;;;;;20.73;7.63;;;0.60;99.90;;;;;;4219515;28;20116;-87
2022/12/12 06:28:26;;;;;;;21.52;7.57;;;-1.50;99.90;;;;;;4221791;28;20138;-87
2022/12/12 06:30:28;;;;;;;20.77;7.45;;;-0.10;99.90;;;;;;4219933;28;20094;-87
2022/12/12 06:32:30;;;;;;;17.70;6.60;;;-1.00;99.90;;;;;;4221018;28;20051;-87
2022/12/12 06:34:31;;;;;;;18.23;8.30;;;1.40;99.90;;;;;;4219444;28;20123;-87
2022/12/12 06:36:37;;;;;;;19.80;7.28;;;-0.10;99.90;;;;;;4223711;28;20044;-87
2022/12/12 06:38:39;;;;;;;23.65;7.53;;;-0.20;99.90;;;;;;4223515;28;20043;-87
2022/12/12 06:40:42;;;;;;;18.45;7.82;;;0.80;99.90;;;;;;4202708;28;20048;-87
2022/12/12 06:42:43;;;;;;;18.13;7.85;;;-0.20;99.90;;;;;;4202603;28;20096;-87
2022/12/12 06:44:48;;;;;;;20.40;7.60;;;0.40;99.90;;;;;;4220167;28;20484;-86
2022/12/12 06:46:51;;;;;;;19.83;7.70;;;1.60;99.90;;;;;;4235320;28;20047;-87
2022/12/12 06:48:53;;;;;;;19.52;8.10;;;-0.20;99.90;;;;;;4236313;28;20123;-87
2022/12/12 06:50:54;;;;;;;21.85;8.10;;;0.00;99.90;;;;;;4219863;28;20048;-86
2022/12/12 06:52:56;;;;;;;17.20;7.82;;;-0.10;99.90;;;;;;4237178;27;20073;-87
2022/12/12 06:54:58;;;;;;;19.33;7.35;;;-0.10;99.90;;;;;;4216678;28;20044;-87
2022/12/12 06:57:00;;;;;;;21.15;7.75;;;0.50;99.90;;;;;;4216852;28;20055;-87
2022/12/12 06:59:00;;;;;;;23.85;8.27;;;0.70;99.90;;;;;;4218681;28;20102;-87
2022/12/12 07:01:04;;;;;;;20.55;7.38;;;1.60;99.90;;;;;;4221159;28;20040;-87
2022/12/12 07:03:12;;;;;;;18.50;7.20;;;0.30;99.90;;;;;;4219519;28;20046;-87
2022/12/12 07:05:13;;;;;;;21.70;7.90;;;0.10;99.90;;;;;;4203352;28;20048;-87
2022/12/12 07:07:14;;;;;;;17.65;7.78;;;-0.10;99.90;;;;;;4233718;28;20044;-87
2022/12/12 07:09:21;;;;;;;18.80;7.85;;;0.00;99.90;;;;;;4236166;28;20047;-86
2022/12/12 07:11:25;;;;;;;19.70;7.63;;;-0.10;99.90;;;;;;4234515;27;20045;-87
2022/12/12 07:13:42;;;;;;;;;;;;;;;;;;;;;
2022/12/12 07:16:22;;;;;;;19.92;8.20;;;-0.20;99.90;;;;;;4228047;28;20097;-87
2022/12/12 07:18:24;;;;;;;20.73;8.23;;;0.00;99.90;;;;;;4201839;28;20476;-87
2022/12/12 07:20:25;;;;;;;18.52;7.70;;;0.10;99.90;;;;;;4217586;28;20433;-87
2022/12/12 07:22:28;;;;;;;20.42;8.30;;;0.80;99.90;;;;;;4229418;28;20055;-87
2022/12/12 07:24:28;;;;;;;20.98;7.43;;;0.70;99.90;;;;;;4237194;28;20039;-88
2022/12/12 07:26:30;;;;;;;21.42;8.27;;;0.70;99.90;;;;;;4235227;28;20101;-87
2022/12/12 07:28:40;;;;;;;26.33;8.10;;;-0.10;99.90;;;;;;4235870;28;20036;-87
2022/12/12 07:30:45;;;;;;;20.15;6.45;;;-1.40;99.90;;;;;;4231070;28;20039;-87
2022/12/12 07:32:46;;;;;;;18.45;7.57;;;-0.10;99.90;;;;;;4220930;28;20040;-88
2022/12/12 07:34:46;;;;;;;20.52;8.23;;;1.10;99.90;;;;;;4226268;28;20036;-88
2022/12/12 07:36:48;;;;;;;21.08;7.30;;;0.80;99.90;;;;;;4210837;28;20048;-87
2022/12/12 07:38:50;;;;;;;21.83;7.40;;;-0.20;99.90;;;;;;4235449;28;20051;-86
2022/12/12 07:40:54;;;;;;;21.40;8.23;;;1.40;99.90;;;;;;4225051;28;20044;-87
2022/12/12 07:42:56;;;;;;;19.30;7.78;;;0.30;99.90;;;;;;4204007;28;20439;-85
2022/12/12 07:44:59;;;;;;;19.40;7.43;;;0.00;99.90;;;;;;4219951;28;20044;-84
2022/12/12 07:46:59;;;;;;;23.38;8.77;;;0.20;99.90;;;;;;4218708;28;20130;-85
2022/12/12 07:49:00;;;;;;;20.27;8.02;;;-0.10;99.90;;;;;;4206207;28;20048;-86
2022/12/12 07:51:02;;;;;;;23.50;8.90;;;1.30;99.90;;;;;;4235290;28;20410;-84
2022/12/12 07:53:04;;;;;;;20.98;8.32;;;0.00;99.90;;;;;;4220986;28;20101;-85
2022/12/12 07:55:06;;;;;;;20.45;8.55;;;-0.10;99.90;;;;;;4236791;28;20054;-85
2022/12/12 07:57:08;;;;;;;21.15;7.85;;;-0.20;99.90;;;;;;4234632;28;20095;-84
2022/12/12 07:59:09;;;;;;;21.70;7.43;;;0.30;99.90;;;;;;4236281;28;20031;-85
2022/12/12 08:01:16;;;;;;;20.58;8.30;;;-0.10;99.90;;;;;;4240923;28;20103;-85
2022/12/12 08:03:17;;;;;;;23.95;8.60;;;-0.10;99.90;;;;;;4214075;28;20049;-86
2022/12/12 08:05:26;;;;;;;24.55;8.93;;;0.70;99.90;;;;;;4219822;28;20043;-86
2022/12/12 08:07:45;;;;;;;;;;;1.30;99.90;;;;;;4232528;28;20055;-86
2022/12/12 08:09:47;;;;;;;20.45;7.40;;;0.00;99.90;;;;;;4233378;28;20001;-85
2022/12/12 08:11:48;;;;;;;19.20;8.57;;;1.70;99.90;;;;;;4232533;28;20043;-85
2022/12/12 08:13:51;;;;;;;22.85;8.13;;;0.00;99.90;;;;;;4219443;28;20055;-85
2022/12/12 08:15:57;;;;;;;23.95;8.98;;;0.90;99.90;;;;;;4218790;28;20040;-85
2022/12/12 08:17:58;;;;;;;19.75;7.55;;;-0.10;99.90;;;;;;4218435;28;20604;-85
2022/12/12 08:20:00;;;;;;;19.58;8.55;;;0.00;99.90;;;;;;4219703;28;20067;-85
2022/12/12 08:22:01;;;;;;;21.30;8.02;;;0.40;99.90;;;;;;4218033;28;20505;-85
2022/12/12 08:24:02;;;;;;;20.38;7.75;;;1.00;99.90;;;;;;4222255;28;20088;-85
2022/12/12 08:26:11;;;;;;;19.13;8.35;;;0.00;99.90;;;;;;4229832;28;20435;-85
2022/12/12 08:28:43;;;;;;;;;;;;;;;;;;;;;
2022/12/12 08:30:49;;;;;;;17.10;7.20;;;-0.80;99.90;;;;;;4234502;28;20085;-86
2022/12/12 08:32:52;;;;;;;21.50;8.15;;;0.10;99.90;;;;;;4236590;28;20484;-85
2022/12/12 08:34:59;;;;;;;19.90;8.68;;;0.00;99.90;;;;;;4207755;28;20163;-86
2022/12/12 08:37:01;;;;;;;19.38;7.45;;;0.20;99.90;;;;;;4236076;28;20092;-86
2022/12/12 08:39:06;;;;;;;19.13;8.40;;;0.00;99.90;;;;;;4227664;28;20043;-85
2022/12/12 08:41:09;;;;;;;22.48;7.75;;;0.10;99.90;;;;;;4218649;28;20405;-85
2022/12/12 08:43:12;;;;;;;24.52;9.45;;;1.30;99.90;;;;;;4217097;28;20047;-86
2022/12/12 08:45:14;;;;;;;22.38;8.88;;;0.10;99.90;;;;;;4228004;28;20033;-86
2022/12/12 08:47:18;;;;;;;22.20;8.13;;;0.30;99.90;;;;;;4221510;28;20048;-85
2022/12/12 08:49:19;;;;;;;20.90;8.50;;;1.60;99.90;;;;;;4218804;28;20089;-85
2022/12/12 08:51:19;;;;;;;19.73;7.53;;;-0.20;99.90;;;;;;4217404;28;20047;-86
2022/12/12 08:53:21;;;;;;;22.50;9.15;;;0.20;99.90;;;;;;4214505;28;20052;-86
2022/12/12 08:55:23;;;;;;;18.15;7.80;;;0.30;99.90;;;;;;4232009;28;20158;-85
2022/12/12 08:57:24;;;;;;;18.27;7.53;;;0.30;99.90;;;;;;4204539;28;20087;-85
2022/12/12 08:59:27;;;;;;;18.67;7.57;;;0.60;99.90;;;;;;4223892;28;20044;-86
2022/12/12 09:01:28;;;;;;;20.63;8.13;;;0.30;99.90;;;;;;4216216;28;20182;-87
2022/12/12 09:03:29;;;;;;;20.73;8.05;;;0.90;99.90;;;;;;4217310;28;20048;-84
2022/12/12 09:05:30;;;;;;;21.13;8.02;;;1.10;99.90;;;;;;4227594;28;20079;-84
2022/12/12 09:07:33;;;;;;;16.42;7.90;;;0.60;99.90;;;;;;4214530;28;20076;-85
2022/12/12 09:09:33;;;;;;;20.02;8.43;;;0.30;99.90;;;;;;4226551;28;20516;-85
2022/12/12 09:11:35;;;;;;;20.92;8.07;;;1.70;99.90;;;;;;4219629;28;20036;-85
2022/12/12 09:13:37;;;;;;;15.10;6.97;;;0.50;99.90;;;;;;4231331;28;20511;-84
2022/12/12 09:15:38;;;;;;;20.60;7.55;;;1.20;99.90;;;;;;4223621;28;20086;-85
2022/12/12 09:17:39;;;;;;;21.65;7.43;;;0.40;99.90;;;;;;4216840;28;20052;-85
2022/12/12 09:19:40;;;;;;;17.10;6.90;;;1.90;99.90;;;;;;4235663;28;20536;-84
2022/12/12 09:21:41;;;;;;;17.90;7.78;;;0.50;99.90;;;;;;4235841;28;20055;-83
2022/12/12 09:23:42;;;;;;;17.38;6.93;;;2.10;99.90;;;;;;4224064;28;20104;-83
2022/12/12 09:25:43;;;;;;;20.98;7.30;;;1.70;99.90;;;;;;4231579;28;20058;-84
2022/12/12 09:27:44;;;;;;;15.02;7.07;;;1.20;99.90;;;;;;4235947;28;20456;-85
2022/12/12 09:29:44;;;;;;;19.10;7.88;;;2.00;99.90;;;;;;4235881;28;20055;-85
2022/12/12 09:31:47;;;;;;;23.58;9.38;;;2.30;99.90;;;;;;4231188;28;20167;-85
2022/12/12 09:33:50;;;;;;;21.92;7.78;;;2.20;99.90;;;;;;4205742;28;20040;-86
2022/12/12 09:36:04;;;;;;;19.30;7.80;;;2.30;99.90;;;;;;4222195;28;20044;-87
2022/12/12 09:38:05;;;;;;;19.90;7.53;;;0.90;99.90;;;;;;4205475;28;20074;-84
2022/12/12 09:40:19;;;;;;;16.65;7.75;;;0.90;99.90;;;;;;4223455;28;20048;-86
2022/12/12 09:42:27;;;;;;;19.50;7.53;;;0.80;99.90;;;;;;4209428;28;20048;-88
2022/12/12 09:44:33;;;;;;;20.48;7.95;;;0.90;99.90;;;;;;4208391;28;20059;-87
2022/12/12 09:46:59;;;;;;;16.13;7.05;;;1.50;99.90;;;;;;4245779;28;20039;-89
2022/12/12 09:49:39;;;;;;;17.73;7.47;;;0.90;99.90;;;;;;4240447;28;20083;-86
2022/12/12 09:51:50;;;;;;;20.15;7.93;;;0.90;99.90;;;;;;4223194;28;20064;-88
2022/12/12 09:53:57;;;;;;;17.95;6.75;;;2.50;99.90;;;;;;4227778;28;20043;-86
2022/12/12 09:56:22;;;;;;;20.70;8.73;;;1.30;99.90;;;;;;4230742;28;20089;-86
2022/12/12 09:58:34;;;;;;;16.38;7.25;;;1.10;99.90;;;;;;4214434;28;20112;-86
2022/12/12 10:00:39;;;;;;;20.67;8.32;;;1.20;99.90;;;;;;4220107;28;20814;-86
2022/12/12 10:03:15;;;;;;;19.95;8.43;;;2.10;99.90;;;;;;4203929;28;20254;-85
2022/12/12 10:05:37;;;;;;;18.63;7.47;;;1.10;99.90;;;;;;4220321;28;20051;-85
2022/12/12 10:07:58;;;;;;;15.15;7.25;;;1.20;99.90;;;;;;4213802;28;20040;-86
2022/12/12 10:10:20;;;;;;;17.55;8.07;;;1.40;99.90;;;;;;4220882;28;20063;-86
2022/12/12 10:12:21;;;;;;;17.27;7.78;;;1.30;99.90;;;;;;4236318;28;20055;-86
2022/12/12 10:14:34;;;;;;;22.02;7.60;;;1.30;99.90;;;;;;4220609;28;20131;-85
2022/12/12 10:16:37;;;;;;;16.33;7.68;;;1.50;99.90;;;;;;4219519;28;20048;-86
2022/12/12 10:18:42;;;;;;;21.38;8.20;;;3.00;99.90;;;;;;4235963;28;20043;-86
2022/12/12 10:21:00;;;;;;;23.48;8.40;;;3.20;99.90;;;;;;4229400;28;20035;-87
2022/12/12 10:23:40;;;;;;;20.58;8.07;;;1.60;99.90;;;;;;4206132;28;20396;-87
2022/12/12 10:25:51;;;;;;;18.48;7.57;;;1.70;99.90;;;;;;4203282;28;20048;-87
2022/12/12 10:28:23;;;;;;;22.60;8.10;;;1.70;99.90;;;;;;4220456;28;20047;-87
2022/12/12 10:30:25;;;;;;;16.13;7.18;;;1.90;99.90;;;;;;4207611;28;20056;-87
2022/12/12 10:32:40;;;;;;;24.45;8.38;;;1.90;99.90;;;;;;4219794;28;20040;-87
2022/12/12 10:35:08;;;;;;;15.02;6.80;;;3.80;99.90;;;;;;4220635;28;20036;-86
2022/12/12 10:37:11;;;;;;;18.08;7.68;;;2.80;99.90;;;;;;4205091;28;20056;-87
2022/12/12 10:39:32;;;;;;;17.50;8.23;;;3.20;99.90;;;;;;4226078;28;20050;-87
2022/12/12 10:42:04;;;;;;;16.55;6.78;;;3.50;99.90;;;;;;4220604;28;20516;-87
2022/12/12 10:44:31;;;;;;;17.92;7.45;;;3.20;99.90;;;;;;4218473;28;20134;-89
2022/12/12 10:46:32;;;;;;;14.25;6.85;;;3.90;99.90;;;;;;4218679;28;20040;-86
2022/12/12 10:48:34;;;;;;;16.80;7.30;;;4.00;99.90;;;;;;4218023;28;20111;-86
2022/12/12 10:50:41;;;;;;;15.95;7.63;;;4.10;99.90;;;;;;4236053;28;20079;-87
2022/12/12 10:52:43;;;;;;;14.40;6.90;;;4.20;99.90;;;;;;4215972;28;20055;-87
2022/12/12 10:54:49;;;;;;;15.77;6.93;;;4.40;99.90;;;;;;4203931;28;20064;-88
2022/12/12 10:57:07;;;;;;;15.82;7.10;;;4.70;99.90;;;;;;4236303;28;20051;-88
2022/12/12 10:59:20;;;;;;;14.43;7.28;;;4.50;99.90;;;;;;4230491;28;20047;-86
2022/12/12 11:01:29;;;;;;;13.73;7.45;;;5.10;99.90;;;;;;4219703;28;20118;-87
2022/12/12 11:03:49;;;;;;;13.67;7.20;;;4.70;99.90;;;;;;4200701;28;20056;-88
2022/12/12 11:05:50;;;;;;;15.52;6.80;;;4.80;99.90;;;;;;4218615;28;20131;-87
2022/12/12 11:08:15;;;;;;;16.02;6.65;;;4.80;99.90;;;;;;4218421;28;20051;-87
2022/12/12 11:10:21;;;;;;;13.50;6.55;;;4.60;99.90;;;;;;4220343;28;20048;-87
2022/12/12 11:12:32;;;;;;;14.77;6.85;;;4.50;99.90;;;;;;4232647;28;20060;-88
2022/12/12 11:14:44;;;;;;;14.13;6.32;;;4.40;99.90;;;;;;4235172;28;20043;-87
2022/12/12 11:16:45;;;;;;;17.77;7.28;;;4.40;99.90;;;;;;4204612;28;20527;-88